Time;durP1;ratioP1;P1;durP2;ratioP2;P2;SDS_P1;SDS_P2;PMS_P1;PMS_P2;Temp;Humidity;BMP_temperature;BMP_pressure;BME280_temperature;BME280_humidity;BME280_pressure;Samples;Min_cycle;Max_cycle;Signal;HPM_P1;HPM_P2
2022/07/23 00:01:36;;;;;;;12.18;3.28;;;20.30;99.90;;;;;;5088317;28;20028;-73
2022/07/23 00:04:02;;;;;;;8.13;3.15;;;20.30;99.90;;;;;;5079770;28;20038;-76
2022/07/23 00:06:28;;;;;;;5.55;3.45;;;20.40;99.90;;;;;;5084730;28;20067;-74
2022/07/23 00:08:54;;;;;;;5.82;3.28;;;20.30;99.90;;;;;;5084808;28;20028;-73
2022/07/23 00:11:21;;;;;;;6.80;3.25;;;20.40;99.90;;;;;;5078695;28;20059;-73
2022/07/23 00:13:48;;;;;;;10.45;3.63;;;20.40;99.90;;;;;;5079013;28;20060;-74
2022/07/23 00:16:14;;;;;;;7.68;3.00;;;20.40;99.90;;;;;;5082213;28;20037;-73
2022/07/23 00:18:40;;;;;;;5.05;3.00;;;20.30;99.90;;;;;;5086342;28;20012;-73
2022/07/23 00:21:06;;;;;;;6.07;3.35;;;20.40;99.90;;;;;;5079606;28;20501;-73
2022/07/23 00:23:32;;;;;;;5.90;3.00;;;20.40;99.90;;;;;;5091265;28;20104;-73
2022/07/23 00:25:58;;;;;;;7.93;3.40;;;20.40;99.90;;;;;;5085350;28;20067;-76
2022/07/23 00:28:24;;;;;;;10.50;3.72;;;20.40;99.90;;;;;;5081690;28;20025;-75
2022/07/23 00:30:50;;;;;;;10.18;3.35;;;20.40;99.90;;;;;;5078707;28;20020;-75
2022/07/23 00:33:16;;;;;;;7.28;3.67;;;20.40;99.90;;;;;;5080878;28;20023;-76
2022/07/23 00:35:42;;;;;;;10.27;3.63;;;20.40;99.90;;;;;;5082304;28;20082;-76
2022/07/23 00:38:10;;;;;;;8.73;3.70;;;20.40;99.90;;;;;;5078518;28;20052;-76
2022/07/23 00:40:36;;;;;;;13.25;3.92;;;20.50;99.90;;;;;;5083193;28;20077;-75
2022/07/23 00:43:03;;;;;;;6.53;2.80;;;20.50;99.90;;;;;;5082138;28;20017;-75
2022/07/23 00:45:30;;;;;;;7.88;3.78;;;20.50;99.90;;;;;;5084185;28;20029;-75
2022/07/23 00:47:56;;;;;;;7.72;3.85;;;20.50;99.90;;;;;;5080583;28;20622;-75
2022/07/23 00:50:22;;;;;;;5.78;3.33;;;20.50;99.90;;;;;;5087072;28;20024;-75
2022/07/23 00:52:48;;;;;;;8.10;3.58;;;20.40;99.90;;;;;;5085394;28;20044;-74
2022/07/23 00:55:14;;;;;;;12.13;4.10;;;20.40;99.90;;;;;;5081919;28;20043;-74
2022/07/23 00:57:41;;;;;;;6.80;3.30;;;20.20;99.90;;;;;;5080496;28;20384;-75
2022/07/23 01:00:10;;;;;;;9.98;3.97;;;20.00;99.90;;;;;;5085461;28;20020;-76
2022/07/23 01:02:36;;;;;;;13.43;5.20;;;19.90;99.90;;;;;;5094560;28;20028;-76
2022/07/23 01:05:03;;;;;;;12.57;4.30;;;19.50;99.90;;;;;;5092933;28;20066;-74
2022/07/23 01:07:29;;;;;;;10.13;4.72;;;19.20;99.90;;;;;;5083152;28;20028;-74
2022/07/23 01:09:55;;;;;;;12.10;5.35;;;19.00;99.90;;;;;;5081125;28;20032;-73
2022/07/23 01:12:21;;;;;;;10.80;5.00;;;18.70;99.90;;;;;;5087411;28;20028;-74
2022/07/23 01:14:57;;;;;;;10.55;5.25;;;18.60;99.90;;;;;;5081200;28;20386;-73
2022/07/23 01:17:23;;;;;;;14.35;5.43;;;18.60;99.90;;;;;;5083232;28;20029;-73
2022/07/23 01:19:49;;;;;;;8.68;4.55;;;18.60;99.90;;;;;;5094526;28;20119;-75
2022/07/23 01:22:17;;;;;;;11.77;5.40;;;18.50;99.90;;;;;;5080568;28;20034;-74
2022/07/23 01:24:43;;;;;;;10.73;5.32;;;18.50;99.90;;;;;;5083138;28;20029;-74
2022/07/23 01:27:09;;;;;;;14.90;5.57;;;18.50;99.90;;;;;;5084204;28;20024;-74
2022/07/23 01:29:35;;;;;;;10.23;5.07;;;18.60;99.90;;;;;;5079178;28;20035;-74
2022/07/23 01:32:01;;;;;;;11.07;5.35;;;18.60;99.90;;;;;;5080507;28;20028;-73
2022/07/23 01:34:26;;;;;;;9.02;4.82;;;18.70;99.90;;;;;;5076365;28;20033;-74
2022/07/23 01:36:52;;;;;;;7.63;4.43;;;18.70;99.90;;;;;;5083973;28;20100;-74
2022/07/23 01:39:18;;;;;;;9.00;5.07;;;18.80;99.90;;;;;;5076451;28;20485;-74
2022/07/23 01:41:44;;;;;;;13.00;5.45;;;18.90;99.90;;;;;;5089170;28;20123;-72
2022/07/23 01:44:10;;;;;;;10.85;5.10;;;18.90;99.90;;;;;;5081941;28;20028;-73
2022/07/23 01:46:35;;;;;;;8.48;4.47;;;18.90;99.90;;;;;;5077044;28;20030;-73
2022/07/23 01:49:01;;;;;;;8.18;4.88;;;18.90;99.90;;;;;;5081290;28;20032;-73
2022/07/23 01:51:27;;;;;;;10.50;5.13;;;18.90;99.90;;;;;;5085352;28;21811;-73
2022/07/23 01:53:53;;;;;;;11.68;4.60;;;18.90;99.90;;;;;;5077605;28;20036;-74
2022/07/23 01:56:20;;;;;;;12.05;5.43;;;18.90;99.90;;;;;;5083923;28;20084;-73
2022/07/23 01:58:47;;;;;;;9.80;4.82;;;18.90;99.90;;;;;;5082630;28;20473;-74
2022/07/23 02:01:13;;;;;;;11.18;5.13;;;18.90;99.90;;;;;;5083010;28;20020;-73
2022/07/23 02:03:39;;;;;;;8.30;5.28;;;18.90;99.90;;;;;;5079006;28;20099;-74
2022/07/23 02:06:05;;;;;;;6.47;4.45;;;19.00;99.90;;;;;;5093117;28;20048;-74
2022/07/23 02:08:31;;;;;;;11.82;5.45;;;19.00;99.90;;;;;;5093086;28;20016;-74
2022/07/23 02:10:56;;;;;;;10.98;5.13;;;19.00;99.90;;;;;;5089118;28;20023;-73
2022/07/23 02:13:22;;;;;;;12.23;5.63;;;19.00;99.90;;;;;;5080374;28;20052;-73
2022/07/23 02:15:48;;;;;;;11.63;4.90;;;19.00;99.90;;;;;;5080130;28;20078;-74
2022/07/23 02:18:14;;;;;;;7.20;4.65;;;19.10;99.90;;;;;;5079894;28;20066;-74
2022/07/23 02:20:41;;;;;;;11.27;4.68;;;19.10;99.90;;;;;;5079774;28;20020;-73
2022/07/23 02:23:07;;;;;;;10.15;5.20;;;19.00;99.90;;;;;;5077398;28;20024;-73
2022/07/23 02:25:33;;;;;;;11.98;4.90;;;19.10;99.90;;;;;;5080307;28;20024;-74
2022/07/23 02:28:00;;;;;;;8.82;4.75;;;19.10;99.90;;;;;;5076768;28;20036;-74
2022/07/23 02:30:26;;;;;;;10.35;5.07;;;19.10;99.90;;;;;;5083360;28;20048;-73
2022/07/23 02:32:51;;;;;;;11.05;5.25;;;19.10;99.90;;;;;;5082980;28;20489;-73
2022/07/23 02:35:17;;;;;;;11.98;5.50;;;19.10;99.90;;;;;;5078512;28;20484;-73
2022/07/23 02:37:43;;;;;;;13.30;4.38;;;19.10;99.90;;;;;;5075803;28;20111;-73
2022/07/23 02:40:09;;;;;;;10.50;4.60;;;19.10;99.90;;;;;;5079813;28;20025;-73
2022/07/23 02:42:35;;;;;;;10.60;4.75;;;19.10;99.90;;;;;;5074867;28;20020;-74
2022/07/23 02:45:01;;;;;;;11.05;4.43;;;19.10;99.90;;;;;;5081679;28;20793;-73
2022/07/23 02:47:27;;;;;;;10.70;5.20;;;19.10;99.90;;;;;;5087092;28;20039;-73
2022/07/23 02:49:53;;;;;;;9.77;5.05;;;19.10;99.90;;;;;;5074268;28;20031;-73
2022/07/23 02:52:19;;;;;;;8.73;4.00;;;19.20;99.90;;;;;;5079243;28;20049;-73
2022/07/23 02:54:44;;;;;;;13.52;5.05;;;19.20;99.90;;;;;;5079973;28;20143;-74
2022/07/23 02:57:10;;;;;;;10.48;4.82;;;19.20;99.90;;;;;;5078563;28;20024;-74
2022/07/23 02:59:36;;;;;;;5.90;4.50;;;19.20;99.90;;;;;;5080462;28;20377;-73
2022/07/23 03:02:02;;;;;;;9.32;5.47;;;19.20;99.90;;;;;;5082116;28;20016;-73
2022/07/23 03:04:28;;;;;;;12.63;5.35;;;19.20;99.90;;;;;;5082488;28;20462;-74
2022/07/23 03:06:53;;;;;;;9.07;4.93;;;19.10;99.90;;;;;;5078772;28;20040;-73
2022/07/23 03:09:19;;;;;;;10.40;4.57;;;19.20;99.90;;;;;;5081292;28;20458;-73
2022/07/23 03:11:45;;;;;;;10.48;4.57;;;19.20;99.90;;;;;;5076456;28;20028;-73
2022/07/23 03:14:13;;;;;;;9.18;4.75;;;19.20;99.90;;;;;;5079888;28;20023;-74
2022/07/23 03:16:39;;;;;;;9.10;4.47;;;19.10;99.90;;;;;;5090788;28;20106;-73
2022/07/23 03:19:05;;;;;;;8.63;5.07;;;19.20;99.90;;;;;;5081524;28;20016;-73
2022/07/23 03:21:31;;;;;;;10.77;4.57;;;19.20;99.90;;;;;;5078971;28;20038;-73
2022/07/23 03:23:56;;;;;;;8.73;4.57;;;19.20;99.90;;;;;;5080012;28;20031;-73
2022/07/23 03:26:25;;;;;;;11.95;5.00;;;19.20;99.90;;;;;;5078124;28;20042;-73
2022/07/23 03:28:52;;;;;;;10.23;5.15;;;19.20;99.90;;;;;;5078151;28;20012;-73
2022/07/23 03:31:18;;;;;;;7.65;4.18;;;19.20;99.90;;;;;;5079257;28;20029;-73
2022/07/23 03:33:43;;;;;;;9.02;4.53;;;19.20;99.90;;;;;;5079425;28;20035;-74
2022/07/23 03:36:09;;;;;;;9.85;3.85;;;19.20;99.90;;;;;;5077824;28;20028;-73
2022/07/23 03:38:35;;;;;;;12.75;5.22;;;19.20;99.90;;;;;;5076170;28;20019;-73
2022/07/23 03:41:01;;;;;;;11.10;4.80;;;19.20;99.90;;;;;;5075029;28;20024;-73
2022/07/23 03:43:27;;;;;;;10.25;5.07;;;19.10;99.90;;;;;;5077585;28;20059;-74
2022/07/23 03:45:53;;;;;;;7.95;4.25;;;19.20;99.90;;;;;;5077679;28;20054;-73
2022/07/23 03:48:19;;;;;;;12.02;4.63;;;19.20;99.90;;;;;;5081874;28;20033;-73
2022/07/23 03:50:44;;;;;;;10.90;4.78;;;19.20;99.90;;;;;;5076660;28;20060;-73
2022/07/23 03:53:10;;;;;;;9.55;3.85;;;19.20;99.90;;;;;;5075819;28;20082;-74
2022/07/23 03:55:36;;;;;;;13.40;4.88;;;19.20;99.90;;;;;;5084321;28;20042;-73
2022/07/23 03:58:02;;;;;;;9.35;4.40;;;19.20;99.90;;;;;;5082394;28;20029;-74
2022/07/23 04:00:28;;;;;;;7.97;4.30;;;19.20;99.90;;;;;;5074857;28;20397;-73
2022/07/23 04:02:54;;;;;;;9.38;4.88;;;19.20;99.90;;;;;;5077663;28;20032;-73
2022/07/23 04:05:20;;;;;;;11.32;4.63;;;19.20;99.90;;;;;;5076291;28;20092;-73
2022/07/23 04:07:46;;;;;;;10.38;4.57;;;19.20;99.90;;;;;;5079214;28;20025;-72
2022/07/23 04:10:11;;;;;;;11.15;5.50;;;19.20;99.90;;;;;;5075021;28;20028;-74
2022/07/23 04:12:37;;;;;;;11.30;4.45;;;19.20;99.90;;;;;;5079678;28;20039;-73
2022/07/23 04:15:04;;;;;;;10.38;5.25;;;19.20;99.90;;;;;;5078822;28;20476;-73
2022/07/23 04:17:30;;;;;;;19.08;5.32;;;19.20;99.90;;;;;;5081599;28;20041;-73
2022/07/23 04:19:55;;;;;;;9.40;4.85;;;19.20;99.90;;;;;;5078699;28;20431;-73
2022/07/23 04:22:21;;;;;;;11.30;4.18;;;19.20;99.90;;;;;;5082045;28;20461;-73
2022/07/23 04:24:47;;;;;;;8.57;4.90;;;19.20;99.90;;;;;;5091893;28;20020;-73
2022/07/23 04:27:13;;;;;;;8.15;4.85;;;19.20;99.90;;;;;;5085617;28;20028;-73
2022/07/23 04:29:39;;;;;;;8.95;4.70;;;19.20;99.90;;;;;;5086653;28;20092;-73
2022/07/23 04:32:05;;;;;;;18.65;4.88;;;19.20;99.90;;;;;;5081386;28;20493;-73
2022/07/23 04:34:31;;;;;;;11.90;5.07;;;19.20;99.90;;;;;;5083040;28;20485;-73
2022/07/23 04:36:57;;;;;;;10.98;6.28;;;19.20;99.90;;;;;;5085916;28;20085;-73
2022/07/23 04:39:23;;;;;;;9.05;4.40;;;19.20;99.90;;;;;;5083725;28;20021;-74
2022/07/23 04:41:48;;;;;;;12.43;5.68;;;19.20;99.90;;;;;;5087796;28;20016;-73
2022/07/23 04:44:14;;;;;;;8.15;4.93;;;19.20;99.90;;;;;;5081289;28;20029;-73
2022/07/23 04:46:40;;;;;;;10.85;5.57;;;19.20;99.90;;;;;;5081893;28;20029;-73
2022/07/23 04:49:06;;;;;;;11.70;4.57;;;19.20;99.90;;;;;;5081520;28;20032;-73
2022/07/23 04:51:32;;;;;;;11.93;4.57;;;19.20;99.90;;;;;;5083719;28;20044;-73
2022/07/23 04:53:58;;;;;;;10.30;5.15;;;19.20;99.90;;;;;;5081355;28;20100;-74
2022/07/23 04:56:24;;;;;;;13.00;5.47;;;19.10;99.90;;;;;;5080086;28;20017;-74
2022/07/23 04:58:49;;;;;;;10.20;5.00;;;19.20;99.90;;;;;;5079118;28;20040;-74
2022/07/23 05:01:15;;;;;;;13.20;4.75;;;19.20;99.90;;;;;;5080067;28;20099;-73
2022/07/23 05:03:41;;;;;;;12.13;5.10;;;19.20;99.90;;;;;;5086051;28;20059;-73
2022/07/23 05:06:07;;;;;;;12.10;4.93;;;19.20;99.90;;;;;;5082026;28;20484;-73
2022/07/23 05:08:33;;;;;;;11.90;5.25;;;19.20;99.90;;;;;;5075580;28;20128;-73
2022/07/23 05:10:59;;;;;;;14.80;4.90;;;19.20;99.90;;;;;;5076862;28;20032;-73
2022/07/23 05:13:24;;;;;;;9.85;5.47;;;19.20;99.90;;;;;;5076111;28;20028;-72
2022/07/23 05:15:50;;;;;;;8.98;4.80;;;19.20;99.90;;;;;;5079427;28;20031;-72
2022/07/23 05:18:17;;;;;;;11.23;5.07;;;19.20;99.90;;;;;;5079846;28;20035;-73
2022/07/23 05:20:42;;;;;;;10.50;4.95;;;19.30;99.90;;;;;;5079769;28;20028;-72
2022/07/23 05:23:08;;;;;;;14.88;6.07;;;19.20;99.90;;;;;;5090559;28;20024;-72
2022/07/23 05:25:34;;;;;;;11.70;4.82;;;19.30;99.90;;;;;;5088993;28;20123;-72
2022/07/23 05:28:00;;;;;;;9.48;4.95;;;19.40;99.90;;;;;;5100124;28;20032;-72
2022/07/23 05:30:26;;;;;;;9.70;6.13;;;19.40;99.90;;;;;;5095487;28;20023;-72
2022/07/23 05:32:52;;;;;;;9.32;5.15;;;19.40;99.90;;;;;;5092679;28;20028;-72
2022/07/23 05:35:17;;;;;;;9.65;5.25;;;19.40;99.90;;;;;;5094660;28;20027;-72
2022/07/23 05:37:43;;;;;;;13.10;5.22;;;19.40;99.90;;;;;;5090810;28;20143;-72
2022/07/23 05:40:10;;;;;;;13.57;5.22;;;19.40;99.90;;;;;;5092926;28;20001;-72
2022/07/23 05:42:38;;;;;;;10.25;5.28;;;19.40;99.90;;;;;;5095094;28;20031;-72
2022/07/23 05:45:05;;;;;;;16.23;5.57;;;19.50;99.90;;;;;;5085798;28;20024;-72
2022/07/23 05:47:42;;;;;;;12.45;4.85;;;19.50;99.90;;;;;;5096598;28;20028;-73
2022/07/23 05:50:08;;;;;;;10.63;5.18;;;19.50;99.90;;;;;;5097768;28;20572;-73
2022/07/23 05:52:34;;;;;;;14.95;6.22;;;19.40;99.90;;;;;;5094012;28;20061;-73
2022/07/23 05:55:00;;;;;;;9.02;4.95;;;19.40;99.90;;;;;;5098290;28;20138;-73
2022/07/23 05:57:26;;;;;;;13.93;5.13;;;19.40;99.90;;;;;;5091420;28;20145;-73
2022/07/23 05:59:52;;;;;;;11.30;5.20;;;19.40;99.90;;;;;;5091433;28;20017;-73
2022/07/23 06:02:18;;;;;;;13.18;5.63;;;19.50;99.90;;;;;;5094590;28;20058;-73
2022/07/23 06:04:45;;;;;;;12.45;4.68;;;19.50;99.90;;;;;;5084128;28;20032;-73
2022/07/23 06:07:11;;;;;;;16.50;4.97;;;19.50;99.90;;;;;;5085981;28;21027;-73
2022/07/23 06:09:37;;;;;;;9.02;5.40;;;19.60;99.90;;;;;;5090018;28;20070;-72
2022/07/23 06:12:03;;;;;;;13.90;5.82;;;19.60;99.90;;;;;;5095083;28;20025;-72
2022/07/23 06:14:29;;;;;;;13.30;5.45;;;19.70;99.90;;;;;;5087604;28;20111;-73
2022/07/23 06:16:55;;;;;;;11.45;5.10;;;19.80;99.90;;;;;;5095358;28;20044;-72
2022/07/23 06:19:21;;;;;;;9.95;5.53;;;19.90;99.90;;;;;;5098166;28;20090;-73
2022/07/23 06:21:47;;;;;;;12.02;5.32;;;20.00;99.90;;;;;;5093540;28;20091;-73
2022/07/23 06:24:12;;;;;;;10.45;4.97;;;20.00;99.90;;;;;;5089316;28;20020;-73
2022/07/23 06:26:38;;;;;;;10.20;4.78;;;20.10;99.90;;;;;;5089748;28;20109;-73
2022/07/23 06:29:04;;;;;;;11.93;4.90;;;20.10;99.90;;;;;;5088475;28;20103;-73
2022/07/23 06:31:30;;;;;;;11.52;4.28;;;20.10;99.90;;;;;;5088100;28;20070;-73
2022/07/23 06:33:55;;;;;;;19.60;4.88;;;20.20;99.90;;;;;;5093219;28;20027;-73
2022/07/23 06:36:21;;;;;;;16.45;4.88;;;20.10;99.90;;;;;;5092407;28;20021;-73
2022/07/23 06:38:47;;;;;;;15.45;4.65;;;20.20;99.90;;;;;;5096885;28;20024;-73
2022/07/23 06:41:13;;;;;;;10.13;3.85;;;20.20;99.90;;;;;;5092894;28;20020;-73
2022/07/23 06:43:39;;;;;;;7.70;4.53;;;20.20;99.90;;;;;;5078574;28;20102;-73
2022/07/23 06:46:06;;;;;;;11.63;4.28;;;20.20;99.90;;;;;;5094596;28;20437;-73
2022/07/23 06:48:34;;;;;;;7.40;4.43;;;20.30;99.90;;;;;;5096471;28;20012;-73
2022/07/23 06:50:59;;;;;;;15.20;3.63;;;20.30;99.90;;;;;;5094254;28;20181;-73
2022/07/23 06:53:25;;;;;;;8.20;3.70;;;20.30;99.90;;;;;;5093885;28;20040;-73
2022/07/23 06:55:51;;;;;;;11.38;3.63;;;20.40;99.90;;;;;;5091566;28;20049;-74
2022/07/23 06:58:19;;;;;;;7.63;3.47;;;20.40;99.90;;;;;;5090536;28;20043;-73
2022/07/23 07:00:45;;;;;;;9.30;4.15;;;20.40;99.90;;;;;;5086329;28;20020;-73
2022/07/23 07:03:10;;;;;;;9.52;3.40;;;20.50;99.90;;;;;;5093113;28;20016;-73
2022/07/23 07:05:36;;;;;;;7.97;3.50;;;20.50;99.90;;;;;;5097248;28;20032;-73
2022/07/23 07:08:02;;;;;;;5.90;3.17;;;20.60;99.90;;;;;;5097404;28;20020;-73
2022/07/23 07:10:28;;;;;;;13.73;3.65;;;20.70;99.90;;;;;;5095750;28;20027;-73
2022/07/23 07:12:54;;;;;;;9.85;3.58;;;21.00;99.90;;;;;;5097433;28;20031;-73
2022/07/23 07:15:20;;;;;;;8.73;3.50;;;21.00;99.90;;;;;;5088419;28;20031;-74
2022/07/23 07:17:46;;;;;;;10.57;3.78;;;21.30;99.90;;;;;;5086101;28;20020;-74
2022/07/23 07:20:11;;;;;;;9.25;3.47;;;21.50;99.90;;;;;;5091598;28;20510;-73
2022/07/23 07:22:37;;;;;;;9.60;3.00;;;21.70;99.90;;;;;;5096078;28;20020;-73
2022/07/23 07:25:04;;;;;;;8.20;4.15;;;21.60;99.90;;;;;;5095370;28;20029;-74
2022/07/23 07:27:29;;;;;;;9.05;3.10;;;21.70;99.90;;;;;;5094928;28;20028;-75
2022/07/23 07:29:55;;;;;;;5.97;3.05;;;21.70;99.90;;;;;;5091921;28;20029;-75
2022/07/23 07:32:21;;;;;;;9.32;3.92;;;21.60;99.90;;;;;;5092756;28;20024;-75
2022/07/23 07:34:47;;;;;;;9.98;3.42;;;21.80;99.90;;;;;;5092731;28;20028;-75
2022/07/23 07:37:13;;;;;;;9.80;4.13;;;21.80;99.90;;;;;;5094946;28;20016;-77
2022/07/23 07:39:39;;;;;;;8.18;2.95;;;21.90;99.90;;;;;;5083239;28;20035;-76
2022/07/23 07:42:05;;;;;;;12.13;3.65;;;22.00;99.90;;;;;;5095902;28;20051;-75
2022/07/23 07:44:30;;;;;;;9.15;4.18;;;21.90;99.90;;;;;;5092377;28;20025;-76
2022/07/23 07:46:56;;;;;;;8.93;3.65;;;22.10;99.90;;;;;;5093826;28;20036;-77
2022/07/23 07:49:23;;;;;;;8.10;3.38;;;22.30;99.90;;;;;;5087025;28;20115;-76
2022/07/23 07:51:49;;;;;;;9.80;3.90;;;22.30;99.90;;;;;;5096473;28;20044;-76
2022/07/23 07:54:15;;;;;;;7.68;3.83;;;22.40;99.90;;;;;;5095640;28;20031;-76
2022/07/23 07:56:41;;;;;;;12.25;4.30;;;22.20;99.90;;;;;;5090766;28;20024;-74
2022/07/23 07:59:07;;;;;;;7.40;3.40;;;22.20;99.90;;;;;;5082887;28;20521;-76
2022/07/23 08:01:33;;;;;;;11.70;3.70;;;22.40;99.90;;;;;;5099875;28;20394;-76
2022/07/23 08:03:59;;;;;;;9.73;3.65;;;22.20;99.90;;;;;;5096640;28;20091;-76
2022/07/23 08:06:25;;;;;;;8.70;3.65;;;22.30;99.90;;;;;;5099407;28;20034;-76
2022/07/23 08:08:50;;;;;;;11.35;3.17;;;22.20;99.90;;;;;;5095935;28;20044;-75
2022/07/23 08:11:16;;;;;;;6.35;2.97;;;22.20;99.90;;;;;;5100675;28;20017;-76
2022/07/23 08:13:44;;;;;;;8.70;3.60;;;22.10;99.90;;;;;;5086207;28;20025;-76
2022/07/23 08:16:10;;;;;;;8.90;3.15;;;21.90;99.90;;;;;;5097980;28;20032;-75
2022/07/23 08:18:36;;;;;;;6.25;3.08;;;21.80;99.90;;;;;;5097286;28;20114;-76
2022/07/23 08:21:04;;;;;;;7.38;3.17;;;21.80;99.90;;;;;;5097054;28;20146;-76
2022/07/23 08:23:29;;;;;;;9.35;3.17;;;21.90;99.90;;;;;;5095370;28;20115;-77
2022/07/23 08:25:56;;;;;;;6.85;3.22;;;21.90;99.90;;;;;;5093862;28;20047;-77
2022/07/23 08:28:23;;;;;;;8.05;3.40;;;22.00;99.90;;;;;;5090087;28;20021;-77
2022/07/23 08:30:49;;;;;;;7.32;3.28;;;21.90;99.90;;;;;;5087705;28;20081;-76
2022/07/23 08:33:16;;;;;;;6.38;3.47;;;22.00;99.90;;;;;;5090859;28;20032;-76
2022/07/23 08:35:47;;;;;;;15.07;3.72;;;22.10;99.90;;;;;;5090322;28;20024;-75
2022/07/23 08:38:15;;;;;;;7.47;3.05;;;22.30;99.90;;;;;;5097349;28;20027;-76
2022/07/23 08:40:47;;;;;;;6.93;3.83;;;22.50;99.90;;;;;;5098654;28;20028;-76
2022/07/23 08:43:18;;;;;;;5.13;2.95;;;22.60;99.90;;;;;;5077893;28;20052;-76
2022/07/23 08:45:47;;;;;;;8.65;3.17;;;22.70;99.90;;;;;;5098068;28;20487;-76
2022/07/23 08:48:23;;;;;;;6.93;2.92;;;22.80;99.90;;;;;;5093596;28;20020;-76
2022/07/23 08:50:54;;;;;;;10.98;4.03;;;23.00;99.90;;;;;;5096162;28;20035;-77
2022/07/23 08:53:21;;;;;;;8.23;3.08;;;23.10;99.90;;;;;;5093962;28;20061;-76
2022/07/23 08:55:48;;;;;;;7.88;3.05;;;23.20;99.90;;;;;;5088262;28;20028;-76
2022/07/23 08:58:15;;;;;;;11.45;3.13;;;22.90;99.90;;;;;;5091832;28;20024;-75
2022/07/23 09:00:41;;;;;;;8.15;3.25;;;23.10;99.90;;;;;;5081992;28;20021;-76
2022/07/23 09:03:07;;;;;;;5.47;2.95;;;23.20;99.90;;;;;;5081750;28;20099;-76
2022/07/23 09:05:33;;;;;;;13.05;3.22;;;23.30;99.90;;;;;;5092827;28;20052;-76
2022/07/23 09:08:21;;;;;;;8.25;2.95;;;23.30;99.90;;;;;;5079086;28;20023;-76
2022/07/23 09:10:58;;;;;;;6.40;2.72;;;23.30;99.90;;;;;;5085573;28;20062;-77
2022/07/23 09:13:43;;;;;;;5.45;2.80;;;23.30;99.90;;;;;;5096768;28;20046;-76
2022/07/23 09:16:15;;;;;;;5.38;2.80;;;23.40;99.90;;;;;;5089102;28;20039;-76
2022/07/23 09:18:50;;;;;;;8.02;2.80;;;23.90;99.90;;;;;;5093721;28;20044;-76
2022/07/23 09:21:23;;;;;;;7.07;2.90;;;24.10;99.90;;;;;;5095321;28;20481;-76
2022/07/23 09:23:54;;;;;;;12.52;3.40;;;24.20;99.90;;;;;;5093609;28;20095;-77
2022/07/23 09:26:23;;;;;;;7.20;3.00;;;24.10;99.90;;;;;;5092368;28;20047;-77
2022/07/23 09:29:11;;;;;;;5.38;2.70;;;23.80;99.90;;;;;;5092853;28;20523;-77
2022/07/23 09:31:47;;;;;;;5.30;2.95;;;23.60;99.90;;;;;;5093874;28;20369;-76
2022/07/23 09:34:18;;;;;;;4.45;2.45;;;23.60;99.90;;;;;;5097904;28;20049;-76
2022/07/23 09:36:44;;;;;;;;;;;23.70;99.90;;;;;;5093993;28;20031;-76
2022/07/23 09:39:11;;;;;;;8.13;2.83;;;23.80;99.90;;;;;;5097706;28;19904;-77
2022/07/23 09:41:43;;;;;;;11.23;3.25;;;24.10;99.90;;;;;;5098705;28;20008;-77
2022/07/23 09:44:11;;;;;;;7.00;3.50;;;24.40;99.90;;;;;;5096494;28;20024;-77
2022/07/23 09:46:39;;;;;;;5.18;2.20;;;25.00;99.90;;;;;;5092946;28;20027;-77
2022/07/23 09:49:14;;;;;;;7.25;3.10;;;24.90;99.90;;;;;;5089795;28;20024;-77
2022/07/23 09:51:56;;;;;;;6.50;2.65;;;25.20;99.90;;;;;;5091932;28;20090;-77
2022/07/23 09:54:24;;;;;;;7.63;2.53;;;25.10;99.90;;;;;;5085160;28;20111;-77
2022/07/23 09:56:52;;;;;;;4.47;2.22;;;25.00;99.90;;;;;;5091884;28;20537;-77
2022/07/23 09:59:22;;;;;;;6.10;3.05;;;24.90;99.90;;;;;;5082248;28;20029;-77
2022/07/23 10:01:48;;;;;;;15.45;3.53;;;24.70;99.90;;;;;;5080906;28;20017;-77
2022/07/23 10:04:14;;;;;;;7.68;2.90;;;24.60;99.90;;;;;;5080564;28;20554;-76
2022/07/23 10:06:43;;;;;;;7.90;2.80;;;24.40;99.90;;;;;;5078843;28;20021;-76
2022/07/23 10:09:15;;;;;;;5.97;2.17;;;24.50;99.90;;;;;;5096585;28;20024;-76
2022/07/23 10:11:41;;;;;;;7.68;2.35;;;24.80;99.90;;;;;;5096998;28;20024;-76
2022/07/23 10:14:07;;;;;;;9.00;2.28;;;24.90;99.90;;;;;;5096464;28;20031;-76
2022/07/23 10:16:33;;;;;;;4.38;2.35;;;24.90;99.90;;;;;;5093873;28;20075;-78
2022/07/23 10:19:02;;;;;;;4.60;1.85;;;24.90;99.90;;;;;;5087390;28;20548;-77
2022/07/23 10:21:41;;;;;;;6.28;1.70;;;25.00;99.90;;;;;;5096098;28;20376;-77
2022/07/23 10:24:30;;;;;;;7.00;1.90;;;25.30;99.90;;;;;;5092446;28;20024;-77
2022/07/23 10:27:15;;;;;;;4.70;1.60;;;25.40;99.70;;;;;;5077782;28;20040;-76
2022/07/23 10:30:09;;;;;;;6.20;2.15;;;25.30;99.50;;;;;;5095801;28;20020;-77
2022/07/23 10:33:09;;;;;;;4.60;2.60;;;25.10;99.40;;;;;;5096527;28;20035;-77
2022/07/23 10:35:46;;;;;;;8.15;2.33;;;25.00;99.30;;;;;;5087370;28;20029;-77
2022/07/23 10:38:21;;;;;;;6.15;1.70;;;24.80;99.90;;;;;;5095271;28;20031;-77
2022/07/23 10:41:00;;;;;;;8.32;2.00;;;25.10;99.90;;;;;;5097860;28;20024;-77
2022/07/23 10:43:26;;;;;;;4.90;2.13;;;25.40;99.90;;;;;;5089402;28;20016;-76
2022/07/23 10:45:53;;;;;;;8.00;1.90;;;25.80;99.80;;;;;;5093475;28;20488;-76
2022/07/23 10:48:20;;;;;;;6.22;2.15;;;25.80;99.30;;;;;;5090713;28;20030;-77
2022/07/23 10:51:08;;;;;;;6.45;1.90;;;25.50;98.70;;;;;;5094431;28;20028;-77
2022/07/23 10:53:59;;;;;;;3.03;1.60;;;25.50;99.30;;;;;;5089682;28;20114;-78
2022/07/23 10:56:56;;;;;;;7.32;1.90;;;25.40;99.40;;;;;;5089141;28;20024;-78
2022/07/23 10:59:23;;;;;;;5.97;1.77;;;25.60;99.70;;;;;;5090024;28;20093;-78
2022/07/23 11:01:50;;;;;;;3.28;1.65;;;25.40;99.30;;;;;;5083965;28;20017;-76
2022/07/23 11:04:16;;;;;;;7.53;1.95;;;25.10;99.30;;;;;;5080881;28;20419;-77
2022/07/23 11:06:51;;;;;;;5.22;2.13;;;25.00;99.30;;;;;;5079796;28;20028;-76
2022/07/23 11:09:30;;;;;;;5.15;1.92;;;25.30;99.90;;;;;;5087811;28;20035;-77
2022/07/23 11:12:21;;;;;;;6.32;2.00;;;25.50;98.80;;;;;;5090610;28;20078;-76
2022/07/23 11:15:06;;;;;;;;;;;25.60;98.70;;;;;;5093151;28;20028;-76
2022/07/23 11:17:51;;;;;;;2.17;1.40;;;25.80;99.30;;;;;;5090847;28;20299;-78
2022/07/23 11:20:19;;;;;;;5.60;1.67;;;25.90;98.90;;;;;;5083694;28;20042;-77
2022/07/23 11:22:45;;;;;;;4.35;1.70;;;26.10;98.10;;;;;;5079917;28;20020;-77
2022/07/23 11:25:30;;;;;;;3.67;1.58;;;26.10;98.00;;;;;;5083337;28;20025;-77
2022/07/23 11:28:17;;;;;;;4.07;1.60;;;26.30;98.00;;;;;;5079179;28;20025;-77
2022/07/23 11:30:45;;;;;;;4.25;1.80;;;26.00;98.00;;;;;;5080292;28;20082;-79
2022/07/23 11:33:11;;;;;;;3.92;1.50;;;25.90;97.90;;;;;;5081065;28;20040;-78
2022/07/23 11:35:38;;;;;;;9.35;1.98;;;25.90;98.50;;;;;;5079086;28;20024;-79
2022/07/23 11:38:16;;;;;;;3.47;1.58;;;26.00;98.10;;;;;;5086024;28;20086;-78
2022/07/23 11:40:45;;;;;;;5.30;2.00;;;26.10;97.50;;;;;;5090444;28;20027;-78
2022/07/23 11:43:12;;;;;;;9.52;2.72;;;25.70;98.00;;;;;;5079678;28;20052;-78
2022/07/23 11:45:41;;;;;;;10.02;5.13;;;25.80;98.80;;;;;;5085028;28;20023;-77
2022/07/23 11:48:09;;;;;;;2.95;1.67;;;25.70;99.10;;;;;;5081845;28;20496;-77
2022/07/23 11:50:36;;;;;;;6.90;1.40;;;25.90;98.50;;;;;;5088054;28;20017;-77
2022/07/23 11:53:03;;;;;;;2.78;1.63;;;25.60;97.50;;;;;;5089179;28;20031;-78
2022/07/23 11:55:29;;;;;;;5.32;1.55;;;25.60;97.60;;;;;;5085785;28;20099;-75
2022/07/23 11:57:56;;;;;;;3.65;1.98;;;25.50;97.90;;;;;;5080917;28;20042;-78
2022/07/23 12:00:27;;;;;;;2.72;1.77;;;25.60;97.80;;;;;;5082731;28;20043;-77
2022/07/23 12:02:58;;;;;;;2.90;1.58;;;25.90;97.60;;;;;;5081242;28;20016;-76
2022/07/23 12:05:35;;;;;;;3.22;1.02;;;26.20;97.50;;;;;;5079315;28;20036;-76
2022/07/23 12:08:06;;;;;;;4.05;1.45;;;26.20;96.70;;;;;;5083000;28;20017;-76
2022/07/23 12:10:43;;;;;;;5.80;1.70;;;25.90;97.00;;;;;;5095594;28;20633;-75
2022/07/23 12:13:12;;;;;;;5.28;2.38;;;26.00;98.00;;;;;;5088708;28;20093;-76
2022/07/23 12:15:50;;;;;;;4.55;1.27;;;26.20;96.40;;;;;;5093019;28;20076;-75
2022/07/23 12:18:21;;;;;;;5.57;1.35;;;26.20;96.60;;;;;;5085020;28;20017;-77
2022/07/23 12:20:53;;;;;;;2.80;1.23;;;25.80;97.00;;;;;;5079816;28;20024;-76
2022/07/23 12:23:25;;;;;;;4.20;1.60;;;25.50;97.80;;;;;;5081019;28;20031;-77
2022/07/23 12:25:53;;;;;;;3.20;1.70;;;25.50;97.90;;;;;;5086180;28;20025;-75
2022/07/23 12:28:28;;;;;;;5.63;1.85;;;25.60;98.20;;;;;;5080489;28;20024;-76
2022/07/23 12:30:55;;;;;;;4.82;1.60;;;25.70;97.80;;;;;;5089960;28;20028;-76
2022/07/23 12:33:23;;;;;;;3.60;1.77;;;25.80;98.10;;;;;;5084896;28;20086;-75
2022/07/23 12:35:49;;;;;;;3.20;1.52;;;25.90;97.20;;;;;;5094800;28;20058;-76
2022/07/23 12:38:18;;;;;;;5.88;1.80;;;25.90;96.70;;;;;;5090250;28;20028;-75
2022/07/23 12:40:47;;;;;;;4.10;1.98;;;25.90;96.70;;;;;;5094008;28;20024;-76
2022/07/23 12:43:39;;;;;;;2.65;1.50;;;26.10;97.20;;;;;;5096584;28;20024;-76
2022/07/23 12:46:09;;;;;;;4.47;1.83;;;26.40;97.30;;;;;;5098619;28;20072;-76
2022/07/23 12:48:37;;;;;;;4.53;1.75;;;26.30;96.60;;;;;;5099787;28;20036;-76